Time;durP1;ratioP1;P1;durP2;ratioP2;P2;SDS_P1;SDS_P2;PMS_P1;PMS_P2;Temp;Humidity;BMP_temperature;BMP_pressure;BME280_temperature;BME280_humidity;BME280_pressure;Samples;Min_cycle;Max_cycle;Signal;HPM_P1;HPM_P2
2023/10/10 00:04:32;;;;;;;12.53;6.83;;;16.00;99.90;;;;;;20994268;28;20433;-66
2023/10/10 00:14:34;;;;;;;13.93;7.03;;;15.90;99.90;;;;;;20993708;28;20210;-64
2023/10/10 00:24:36;;;;;;;13.30;6.50;;;15.70;99.90;;;;;;21003429;28;20372;-65
2023/10/10 00:34:38;;;;;;;13.27;6.70;;;15.70;99.90;;;;;;21007789;28;20207;-67
2023/10/10 00:44:40;;;;;;;12.73;6.20;;;15.70;99.90;;;;;;21006976;28;20231;-67
2023/10/10 00:54:43;;;;;;;10.63;6.13;;;15.60;99.90;;;;;;21006625;28;20667;-64
2023/10/10 01:14:57;;;;;;;13.10;6.83;;;15.50;99.90;;;;;;21004846;28;20727;-65
2023/10/10 01:24:59;;;;;;;12.30;6.07;;;15.50;99.90;;;;;;21004270;28;20231;-64
2023/10/10 01:35:01;;;;;;;14.33;6.70;;;15.40;99.90;;;;;;21003340;28;20203;-65
2023/10/10 01:45:10;;;;;;;11.67;6.80;;;15.20;99.90;;;;;;21002279;28;20236;-65
2023/10/10 01:55:12;;;;;;;13.97;6.10;;;15.20;99.90;;;;;;21002486;28;20235;-68
2023/10/10 02:05:15;;;;;;;11.13;6.27;;;15.20;99.90;;;;;;21000776;28;20726;-68
2023/10/10 02:15:25;;;;;;;11.67;6.47;;;15.20;99.90;;;;;;20999773;28;20371;-68
2023/10/10 02:35:46;;;;;;;13.60;6.73;;;14.90;99.90;;;;;;20998299;28;20215;-68
2023/10/10 02:45:48;;;;;;;13.23;6.33;;;14.80;99.90;;;;;;20997415;28;20241;-68
2023/10/10 02:55:53;;;;;;;13.97;6.40;;;14.80;99.90;;;;;;20997049;28;20239;-66
2023/10/10 03:05:55;;;;;;;13.43;6.40;;;14.80;99.90;;;;;;20996613;28;20241;-67
2023/10/10 03:16:11;;;;;;;11.93;6.43;;;14.70;99.90;;;;;;20996986;28;20225;-66
2023/10/10 03:26:18;;;;;;;12.50;6.10;;;14.70;99.90;;;;;;20995401;28;20288;-65
2023/10/10 05:30:23;;;;;;;14.40;6.57;;;13.90;99.90;;;;;;21003351;28;20207;-72
2023/10/10 05:40:26;;;;;;;14.53;6.87;;;13.90;99.90;;;;;;21000673;28;20241;-70
2023/10/10 05:50:28;;;;;;;19.03;7.50;;;13.90;99.90;;;;;;20997534;28;20246;-68
2023/10/10 06:00:36;;;;;;;27.40;7.93;;;13.90;99.90;;;;;;21000779;28;20270;-68
2023/10/10 06:10:38;;;;;;;27.00;6.80;;;13.80;99.90;;;;;;20999909;28;20219;-67
2023/10/10 06:20:43;;;;;;;31.43;7.47;;;13.80;99.90;;;;;;20999163;28;20541;-68
2023/10/10 06:30:50;;;;;;;28.63;7.20;;;13.80;99.90;;;;;;20998202;28;20218;-72
2023/10/10 06:40:55;;;;;;;19.57;7.77;;;14.00;99.90;;;;;;20996974;28;20270;-74
2023/10/10 06:50:57;;;;;;;31.03;7.20;;;14.00;99.90;;;;;;20996998;28;20707;-72
2023/10/10 07:01:04;;;;;;;18.10;6.93;;;14.20;99.90;;;;;;20996253;28;20246;-71
2023/10/10 07:11:10;;;;;;;17.33;7.53;;;14.40;99.90;;;;;;20995476;28;20233;-72
2023/10/10 07:21:30;;;;;;;29.40;8.03;;;14.50;99.90;;;;;;20995469;28;20230;-72
2023/10/10 07:31:34;;;;;;;16.60;7.33;;;14.70;99.90;;;;;;20993741;28;20203;-72
2023/10/10 07:41:45;;;;;;;22.90;8.07;;;15.00;99.90;;;;;;20993671;28;20230;-71
2023/10/10 07:51:49;;;;;;;16.70;7.27;;;15.30;99.90;;;;;;20993805;28;20655;-73
2023/10/10 08:01:54;;;;;;;20.00;7.90;;;15.50;99.90;;;;;;20993443;28;20242;-73
2023/10/10 08:11:56;;;;;;;16.47;8.23;;;15.70;99.90;;;;;;20992664;28;20204;-73
2023/10/10 08:21:57;;;;;;;17.47;8.30;;;15.90;99.90;;;;;;20992724;28;20263;-74
2023/10/10 08:31:59;;;;;;;18.03;8.60;;;16.20;99.90;;;;;;20984143;28;20595;-73
2023/10/10 08:42:05;;;;;;;15.63;7.60;;;16.50;99.90;;;;;;20996535;28;20231;-72
2023/10/10 08:52:07;;;;;;;29.40;8.53;;;16.80;99.90;;;;;;21006600;28;20230;-72
2023/10/10 09:02:15;;;;;;;16.70;7.40;;;17.10;99.90;;;;;;21005451;28;20233;-73
2023/10/10 09:12:20;;;;;;;18.57;8.10;;;17.40;99.90;;;;;;21004802;28;20305;-72
2023/10/10 09:22:30;;;;;;;19.10;8.27;;;17.70;99.80;;;;;;21004447;28;20257;-72
2023/10/10 09:32:36;;;;;;;18.40;7.23;;;18.00;99.60;;;;;;21003481;28;20672;-73
2023/10/10 09:43:03;;;;;;;14.00;6.50;;;18.30;99.30;;;;;;21002377;28;20288;-73
2023/10/10 09:53:19;;;;;;;14.33;6.10;;;18.50;99.10;;;;;;21012043;28;20241;-73
2023/10/10 10:03:31;;;;;;;12.87;5.87;;;18.70;98.70;;;;;;21084704;28;20628;-73
2023/10/10 10:13:49;;;;;;;11.23;6.33;;;19.00;98.30;;;;;;21083754;28;20653;-73
2023/10/10 10:24:15;;;;;;;17.87;7.10;;;19.30;97.80;;;;;;21082962;28;20298;-73
2023/10/10 10:55:19;;;;;;;14.03;5.10;;;20.00;95.10;;;;;;21080560;28;20842;-74
2023/10/10 11:05:27;;;;;;;13.40;4.63;;;20.30;92.60;;;;;;21079999;28;20233;-71
2023/10/10 11:15:37;;;;;;;6.27;4.40;;;20.50;90.30;;;;;;21079383;28;20202;-71
2023/10/10 11:25:58;;;;;;;8.47;5.10;;;20.80;87.20;;;;;;21078829;28;20238;-74
2023/10/10 11:36:29;;;;;;;11.23;4.47;;;21.00;84.20;;;;;;21078649;28;20228;-74
2023/10/10 11:46:32;;;;;;;11.13;4.83;;;21.30;80.40;;;;;;21077161;28;20232;-74
2023/10/10 11:56:34;;;;;;;14.37;4.87;;;21.50;78.80;;;;;;21076937;28;20269;-74
2023/10/10 12:06:36;;;;;;;8.17;4.63;;;21.70;77.80;;;;;;21076802;28;20600;-73
2023/10/10 12:16:38;;;;;;;11.17;4.57;;;21.80;77.90;;;;;;21078039;28;20210;-75
2023/10/10 12:26:41;;;;;;;10.83;4.90;;;21.90;76.70;;;;;;21088795;28;20719;-75
2023/10/10 12:36:43;;;;;;;10.47;4.70;;;22.00;75.70;;;;;;21091862;28;20650;-77
2023/10/10 12:46:45;;;;;;;10.40;5.00;;;22.20;73.70;;;;;;21090823;28;20679;-77
2023/10/10 12:56:55;;;;;;;8.93;3.90;;;22.30;72.80;;;;;;21089870;28;20230;-76
2023/10/10 13:07:02;;;;;;;10.47;4.63;;;22.30;71.10;;;;;;21089790;28;20237;-77
2023/10/10 13:27:25;;;;;;;12.10;4.37;;;22.60;69.80;;;;;;21086538;28;20256;-77
2023/10/10 13:37:27;;;;;;;13.70;4.80;;;22.70;69.70;;;;;;21087165;28;20207;-75
2023/10/10 13:47:29;;;;;;;10.83;5.10;;;22.80;69.30;;;;;;21085660;28;20245;-77
2023/10/10 13:57:31;;;;;;;7.40;4.57;;;23.00;69.40;;;;;;21084696;28;20576;-76
2023/10/10 14:07:32;;;;;;;12.40;4.53;;;23.20;68.90;;;;;;21084717;28;20234;-77
2023/10/10 14:17:35;;;;;;;7.97;3.77;;;;;;;;;;21083808;28;20218;-75
2023/10/10 14:27:36;;;;;;;14.68;3.80;;;23.50;68.10;;;;;;21082756;28;20322;-78
2023/10/10 14:37:38;;;;;;;11.20;4.47;;;25.50;62.80;;;;;;21081857;28;20215;-76
2023/10/10 14:48:05;;;;;;;16.17;4.67;;;24.80;62.00;;;;;;21081090;28;20237;-77
2023/10/10 14:58:10;;;;;;;12.07;4.90;;;24.50;61.50;;;;;;21080449;28;20472;-76
2023/10/10 15:08:16;;;;;;;11.97;5.43;;;25.00;59.60;;;;;;21080371;28;20235;-75
2023/10/10 15:18:19;;;;;;;8.77;4.90;;;24.20;59.50;;;;;;21079403;28;20210;-71
2023/10/10 15:28:22;;;;;;;9.53;5.13;;;23.70;58.30;;;;;;21078785;28;20645;-71
2023/10/10 15:38:24;;;;;;;11.90;5.10;;;23.30;57.80;;;;;;21078604;28;20207;-72
2023/10/10 15:48:25;;;;;;;10.37;5.07;;;22.90;57.50;;;;;;21076651;28;20226;-70
2023/10/10 15:58:27;;;;;;;10.10;5.37;;;22.70;58.20;;;;;;21092515;28;20709;-71
2023/10/10 16:08:29;;;;;;;14.67;7.23;;;22.10;58.70;;;;;;21094097;28;20249;-70
2023/10/10 16:18:33;;;;;;;14.63;5.90;;;22.10;59.30;;;;;;21093146;28;20207;-69
2023/10/10 16:28:35;;;;;;;18.07;5.63;;;21.80;60.00;;;;;;21092446;28;20269;-67
2023/10/10 16:38:40;;;;;;;11.00;5.40;;;21.50;61.20;;;;;;21089828;28;20693;-70
2023/10/10 16:48:44;;;;;;;12.23;5.73;;;21.20;61.90;;;;;;21139748;28;20261;-72
2023/10/10 16:58:49;;;;;;;12.40;6.80;;;20.90;63.00;;;;;;21118199;28;20237;-74
2023/10/10 17:08:54;;;;;;;14.47;7.50;;;20.50;64.00;;;;;;21088628;28;20231;-72
2023/10/10 17:18:57;;;;;;;14.77;7.00;;;20.10;65.10;;;;;;21089555;28;20211;-77
2023/10/10 17:29:17;;;;;;;9.37;5.60;;;19.90;66.00;;;;;;21072794;28;20563;-73
2023/10/10 17:39:19;;;;;;;10.47;5.73;;;19.60;67.20;;;;;;21087093;28;20861;-70
2023/10/10 17:49:21;;;;;;;16.43;6.33;;;19.30;69.10;;;;;;21086673;28;20658;-75
2023/10/10 17:59:23;;;;;;;16.23;7.53;;;19.00;70.70;;;;;;21085743;28;20233;-71
2023/10/10 18:09:29;;;;;;;16.43;8.13;;;18.80;71.90;;;;;;21085069;28;20214;-74
2023/10/10 18:19:34;;;;;;;18.73;8.33;;;18.70;73.20;;;;;;21058026;28;20265;-80
2023/10/10 18:29:35;;;;;;;14.53;8.10;;;18.50;74.40;;;;;;21034454;28;20209;-79
2023/10/10 18:39:38;;;;;;;22.00;11.43;;;18.30;75.50;;;;;;21054080;28;20230;-80
2023/10/10 18:49:40;;;;;;;23.30;11.20;;;18.20;76.30;;;;;;21132306;28;20209;-71
2023/10/10 18:59:46;;;;;;;22.50;12.77;;;17.70;77.30;;;;;;21081370;28;20234;-78
2023/10/10 19:09:48;;;;;;;23.07;12.43;;;17.70;78.00;;;;;;21115287;28;20211;-76
2023/10/10 19:19:50;;;;;;;27.87;13.00;;;17.60;78.80;;;;;;21164572;28;20237;-77
2023/10/10 19:29:52;;;;;;;28.57;15.83;;;17.50;79.70;;;;;;21144869;28;20231;-75
2023/10/10 19:39:55;;;;;;;30.10;14.80;;;17.30;80.50;;;;;;21162198;28;20765;-71
2023/10/10 19:49:56;;;;;;;27.77;10.50;;;17.20;81.60;;;;;;21078630;28;20243;-77
2023/10/10 19:59:58;;;;;;;19.43;9.97;;;17.10;82.50;;;;;;21078278;28;20240;-75
2023/10/10 20:10:00;;;;;;;21.23;9.33;;;17.00;83.20;;;;;;21077902;28;20323;-67
2023/10/10 20:20:03;;;;;;;18.13;9.30;;;16.90;84.40;;;;;;21077785;28;20234;-67
2023/10/10 20:30:08;;;;;;;17.23;8.43;;;16.70;85.30;;;;;;21077086;28;20207;-69
2023/10/10 20:40:18;;;;;;;16.63;9.17;;;16.60;86.50;;;;;;21087720;28;20228;-76
2023/10/10 20:50:24;;;;;;;20.83;9.63;;;16.60;87.50;;;;;;21176205;28;20228;-84
2023/10/10 21:00:28;;;;;;;19.33;9.17;;;16.40;88.70;;;;;;21174945;28;20265;-80
2023/10/10 21:10:30;;;;;;;19.50;10.23;;;16.30;90.00;;;;;;21174283;28;20211;-81
2023/10/10 21:20:32;;;;;;;17.77;9.77;;;16.20;90.50;;;;;;21173663;28;20237;-78
2023/10/10 21:30:42;;;;;;;18.40;7.37;;;16.00;91.00;;;;;;21172606;28;20198;-82
2023/10/10 21:40:44;;;;;;;19.60;7.77;;;15.90;91.50;;;;;;21163936;28;20254;-77
2023/10/10 21:50:46;;;;;;;19.30;7.37;;;15.80;91.90;;;;;;21085774;28;20233;-73
2023/10/10 22:00:55;;;;;;;15.13;7.37;;;15.90;92.30;;;;;;21085392;28;20234;-73
2023/10/10 22:10:56;;;;;;;17.17;6.87;;;15.80;92.50;;;;;;21066947;28;20657;-71
2023/10/10 22:21:02;;;;;;;19.73;6.97;;;15.70;93.10;;;;;;21084483;28;20317;-71
2023/10/10 22:31:12;;;;;;;17.70;7.70;;;15.60;92.80;;;;;;21082020;28;20578;-69
2023/10/10 22:41:15;;;;;;;17.80;7.30;;;15.60;93.30;;;;;;21082477;28;20235;-70
2023/10/10 22:51:17;;;;;;;19.40;7.27;;;15.60;93.30;;;;;;21081974;28;20226;-68
2023/10/10 23:01:22;;;;;;;14.67;6.90;;;15.50;94.00;;;;;;21080650;28;20242;-72
2023/10/10 23:11:24;;;;;;;16.30;7.03;;;15.40;94.30;;;;;;21080379;28;20206;-66
2023/10/10 23:21:27;;;;;;;20.63;7.83;;;15.30;94.70;;;;;;21080148;28;20235;-66
2023/10/10 23:31:29;;;;;;;15.43;7.53;;;15.20;94.90;;;;;;21041275;28;20207;-65
2023/10/10 23:41:32;;;;;;;17.77;7.33;;;15.20;95.20;;;;;;21054623;28;20703;-66
2023/10/10 23:51:36;;;;;;;14.77;7.00;;;15.20;95.40;;;;;;20994881;28;20231;-66
